Mnt Lake Park, Maryland
Current Conditions -  °F | °C
As of 2:15 PM on Friday 28 Nov 2014 (Local Time) from K2G4 Reporting Station
Haze Haze  
Wind Chill: 12°   Ceiling: 900
Heat Index: 21°   Visibility: 2mi
Dew Point: 19°   Wind: 8mph
Humidity: 93%   Direction: 270°W
Pressure: 30.15"   Gusts: NA
Location:  39.3804°N, 79.3888°W
Report Text: K2G4 281915Z AUTO 27007KT 2SM BR OVC009 M06/M07 A3015 RMK AO1
Loading
Personal Weather Stations






























Interactive Weather Map New forecast layout! Learn more

10-Day Weather Forecast

Advertisements
Track Severe Weather on mobile